createdAt,value
2017-09-08T00:02:23.636Z,7.67
2017-09-08T00:04:52.650Z,6.63
2017-09-08T00:07:21.559Z,6.43
2017-09-08T00:09:49.895Z,5.73
2017-09-08T00:12:19.484Z,7.63
2017-09-08T00:14:47.832Z,6.90
2017-09-08T00:17:15.963Z,6.93
2017-09-08T00:19:44.089Z,6.37
2017-09-08T00:22:12.971Z,7.30
2017-09-08T00:24:41.104Z,6.90
2017-09-08T00:27:09.197Z,6.90
2017-09-08T00:29:37.326Z,6.30
2017-09-08T00:32:05.539Z,6.30
2017-09-08T00:34:33.639Z,6.50
2017-09-08T00:37:02.564Z,7.37
2017-09-08T00:39:30.648Z,6.07
2017-09-08T00:41:58.876Z,6.33
2017-09-08T00:44:26.993Z,6.40
2017-09-08T00:46:55.124Z,7.17
2017-09-08T00:49:24.430Z,6.27
2017-09-08T00:51:53.709Z,6.10
2017-09-08T00:54:21.830Z,6.70
2017-09-08T00:56:50.703Z,6.07
2017-09-08T00:59:18.950Z,6.20
2017-09-08T01:01:47.897Z,7.13
2017-09-08T01:04:16.095Z,6.07
2017-09-08T01:06:44.233Z,5.90
2017-09-08T01:09:13.249Z,6.30
2017-09-08T01:11:41.421Z,6.40
2017-09-08T01:14:09.556Z,7.10
2017-09-08T01:16:38.830Z,5.83
2017-09-08T01:19:06.948Z,6.00
2017-09-08T01:21:35.046Z,5.90
2017-09-08T01:24:03.371Z,6.00
2017-09-08T01:26:32.193Z,6.10
2017-09-08T01:29:00.539Z,7.23
2017-09-08T01:31:29.677Z,5.83
2017-09-08T01:33:58.784Z,6.03
2017-09-08T01:36:26.916Z,5.80
2017-09-08T01:38:56.401Z,6.63
2017-09-08T01:41:24.722Z,5.43
2017-09-08T01:43:52.852Z,5.03
2017-09-08T01:46:20.953Z,6.07
2017-09-08T01:48:49.045Z,5.10
2017-09-08T01:51:17.275Z,5.47
2017-09-08T01:53:45.368Z,5.70
2017-09-08T01:56:14.253Z,6.30
2017-09-08T01:58:43.232Z,4.80
2017-09-08T02:01:15.225Z,5.00
2017-09-08T02:03:47.824Z,6.30
2017-09-08T02:06:15.971Z,5.93
2017-09-08T02:08:44.381Z,5.70
2017-09-08T02:11:12.746Z,6.30
2017-09-08T02:13:41.925Z,5.70
2017-09-08T02:16:10.034Z,7.27
2017-09-08T02:18:38.186Z,5.50
2017-09-08T02:21:06.692Z,5.40
2017-09-08T02:23:35.010Z,5.10
2017-09-08T02:26:03.155Z,5.50
2017-09-08T02:28:31.322Z,4.77
2017-09-08T02:30:59.513Z,4.60
2017-09-08T02:33:27.916Z,5.50
2017-09-08T02:36:02.804Z,4.57
2017-09-08T02:38:31.004Z,5.00
2017-09-08T02:40:59.133Z,5.33
2017-09-08T02:43:27.811Z,5.13
2017-09-08T02:45:55.953Z,5.00
2017-09-08T02:48:28.168Z,4.90
2017-09-08T02:50:56.263Z,5.30
2017-09-08T02:53:24.428Z,4.97
2017-09-08T02:55:53.495Z,5.47
2017-09-08T02:58:21.723Z,5.40
2017-09-08T03:00:56.216Z,5.30
2017-09-08T03:03:24.640Z,4.60
2017-09-08T03:05:53.135Z,5.27
2017-09-08T03:08:21.309Z,5.20
2017-09-08T03:10:49.428Z,4.60
2017-09-08T03:13:17.840Z,4.37
2017-09-08T03:15:46.257Z,5.00
2017-09-08T03:18:14.712Z,5.10
2017-09-08T03:20:43.745Z,5.67
2017-09-08T03:23:11.875Z,5.10
2017-09-08T03:25:40.104Z,6.00
2017-09-08T03:28:08.708Z,5.30
2017-09-08T03:30:36.830Z,4.60
2017-09-08T03:33:05.713Z,4.90
2017-09-08T03:35:33.836Z,4.73
2017-09-08T03:38:05.353Z,4.93
2017-09-08T03:40:33.446Z,5.10
2017-09-08T03:43:01.556Z,5.03
2017-09-08T03:45:29.707Z,5.20
2017-09-08T03:47:57.871Z,4.27
2017-09-08T03:50:26.216Z,5.40
2017-09-08T03:52:54.303Z,4.90
2017-09-08T03:55:22.413Z,5.20
2017-09-08T03:57:50.807Z,5.70
2017-09-08T04:00:18.922Z,5.40
2017-09-08T04:02:47.039Z,5.07
2017-09-08T04:05:15.147Z,5.20
2017-09-08T04:07:46.980Z,5.00
2017-09-08T04:10:16.340Z,5.30
2017-09-08T04:12:44.689Z,6.30
2017-09-08T04:15:12.991Z,5.27
2017-09-08T04:17:44.503Z,6.33
2017-09-08T04:20:13.224Z,4.93
2017-09-08T04:22:43.388Z,5.27
2017-09-08T04:25:11.504Z,5.57
2017-09-08T04:27:39.603Z,4.57
2017-09-08T04:30:07.916Z,4.87
2017-09-08T04:32:36.256Z,5.10
2017-09-08T04:35:04.721Z,5.03
2017-09-08T04:37:33.624Z,5.33
2017-09-08T04:40:01.746Z,5.37
2017-09-08T04:42:29.839Z,4.67
2017-09-08T04:44:57.955Z,6.07
2017-09-08T04:47:26.091Z,4.73
2017-09-08T04:49:54.167Z,5.33
2017-09-08T04:52:22.288Z,4.80
2017-09-08T04:54:51.288Z,4.87
2017-09-08T04:57:21.284Z,4.93
2017-09-08T04:59:49.388Z,5.10
2017-09-08T05:02:17.502Z,5.10
2017-09-08T05:04:45.887Z,4.93
2017-09-08T05:07:14.940Z,4.83
2017-09-08T05:09:43.104Z,4.80
2017-09-08T05:12:11.526Z,5.53
2017-09-08T05:14:39.866Z,5.20
2017-09-08T05:17:07.957Z,4.70
2017-09-08T05:19:36.106Z,5.07
2017-09-08T05:22:04.245Z,5.07
2017-09-08T05:24:32.692Z,5.13
2017-09-08T05:27:01.160Z,4.20
2017-09-08T05:29:29.238Z,4.77
2017-09-08T05:31:57.496Z,5.80
2017-09-08T05:34:25.874Z,5.20
2017-09-08T05:36:54.375Z,4.50
2017-09-08T05:39:22.661Z,5.40
2017-09-08T05:41:53.108Z,4.50
2017-09-08T05:44:22.101Z,3.93
2017-09-08T05:46:50.300Z,5.13
2017-09-08T05:49:18.652Z,4.10
2017-09-08T05:51:46.831Z,5.10
2017-09-08T05:54:15.886Z,4.97
2017-09-08T05:56:50.367Z,5.70
2017-09-08T05:59:18.459Z,5.60
2017-09-08T06:01:46.584Z,4.73
2017-09-08T06:04:14.673Z,5.47
2017-09-08T06:06:42.829Z,4.00
2017-09-08T06:09:11.190Z,5.00
2017-09-08T06:11:39.292Z,3.60
2017-09-08T06:14:07.442Z,3.77
2017-09-08T06:16:35.504Z,4.30
2017-09-08T06:19:03.677Z,4.07
2017-09-08T06:21:32.305Z,4.90
2017-09-08T06:24:00.491Z,6.57
2017-09-08T06:26:28.752Z,6.10
2017-09-08T06:28:57.175Z,4.87
2017-09-08T06:31:26.657Z,4.40
2017-09-08T06:33:55.044Z,4.70
2017-09-08T06:36:23.275Z,4.97
2017-09-08T06:38:52.377Z,6.00
2017-09-08T06:41:21.470Z,5.13
2017-09-08T06:43:50.638Z,4.57
2017-09-08T06:46:18.732Z,4.20
2017-09-08T06:48:47.104Z,4.10
2017-09-08T06:51:15.708Z,3.97
2017-09-08T06:53:44.844Z,4.40
2017-09-08T06:56:13.927Z,4.00
2017-09-08T06:58:42.532Z,3.90
2017-09-08T07:01:11.557Z,4.10
2017-09-08T07:03:39.960Z,3.20
2017-09-08T07:06:08.899Z,3.57
2017-09-08T07:08:37.260Z,3.90
2017-09-08T07:11:05.356Z,3.70
2017-09-08T07:13:35.562Z,3.70
2017-09-08T07:16:06.948Z,4.00
2017-09-08T07:18:35.841Z,3.90
2017-09-08T07:21:09.100Z,3.93
2017-09-08T07:23:37.269Z,3.83
2017-09-08T07:26:05.588Z,4.10
2017-09-08T07:28:33.684Z,4.03
2017-09-08T07:31:02.739Z,3.80
2017-09-08T07:33:30.861Z,4.67
2017-09-08T07:35:59.229Z,3.63
2017-09-08T07:38:27.416Z,3.73
2017-09-08T07:40:55.540Z,4.00
2017-09-08T07:43:23.817Z,3.53
2017-09-08T07:45:52.729Z,3.97
2017-09-08T07:48:21.876Z,3.40
2017-09-08T07:50:49.992Z,4.00
2017-09-08T07:53:18.112Z,3.83
2017-09-08T07:55:46.209Z,3.50
2017-09-08T07:58:14.664Z,3.87
2017-09-08T08:00:42.823Z,4.07
2017-09-08T08:03:11.181Z,3.60
2017-09-08T08:05:40.065Z,3.83
2017-09-08T08:08:08.179Z,4.40
2017-09-08T08:10:36.280Z,3.60
2017-09-08T08:13:04.371Z,4.40
2017-09-08T08:15:32.489Z,3.90
2017-09-08T08:18:00.901Z,3.90
2017-09-08T08:20:29.519Z,3.93
2017-09-08T08:22:59.632Z,3.40
2017-09-08T08:25:27.878Z,3.60
2017-09-08T08:27:57.239Z,3.87
2017-09-08T08:30:25.784Z,3.40
2017-09-08T08:32:54.105Z,5.70
2017-09-08T08:35:22.637Z,5.70
2017-09-08T08:37:51.176Z,4.93
2017-09-08T08:40:19.754Z,4.50
2017-09-08T08:42:47.875Z,4.00
2017-09-08T08:45:17.020Z,4.67
2017-09-08T08:47:45.955Z,4.00
2017-09-08T08:50:14.293Z,3.77
2017-09-08T08:52:42.443Z,3.90
2017-09-08T08:55:10.542Z,4.27
2017-09-08T08:57:39.428Z,3.70
2017-09-08T09:00:07.787Z,4.70
2017-09-08T09:02:35.897Z,4.50
2017-09-08T09:05:05.199Z,3.63
2017-09-08T09:07:34.385Z,3.70
2017-09-08T09:10:02.480Z,3.67
2017-09-08T09:12:30.587Z,3.43
2017-09-08T09:14:59.516Z,4.50
2017-09-08T09:17:28.120Z,3.90
2017-09-08T09:19:57.294Z,3.70
2017-09-08T09:22:25.784Z,3.70
2017-09-08T09:24:55.967Z,4.53
2017-09-08T09:27:28.455Z,4.00
2017-09-08T09:29:56.660Z,3.77
2017-09-08T09:32:25.730Z,3.33
2017-09-08T09:34:58.125Z,4.37
2017-09-08T09:37:26.242Z,3.63
2017-09-08T09:39:54.401Z,2.90
2017-09-08T09:42:23.806Z,4.23
2017-09-08T09:44:52.884Z,3.33
2017-09-08T09:47:23.257Z,3.30
2017-09-08T09:49:51.380Z,2.90
2017-09-08T09:52:20.541Z,3.50
2017-09-08T09:54:49.415Z,4.00
2017-09-08T09:57:17.740Z,3.33
2017-09-08T09:59:46.120Z,3.50
2017-09-08T10:02:15.189Z,2.90
2017-09-08T10:04:43.320Z,3.10
2017-09-08T10:07:11.408Z,2.57
2017-09-08T10:09:39.532Z,2.40
2017-09-08T10:12:07.680Z,2.50
2017-09-08T10:14:40.153Z,2.73
2017-09-08T10:17:08.308Z,2.60
2017-09-08T10:19:36.432Z,3.00
2017-09-08T10:22:05.470Z,2.80
2017-09-08T10:24:33.619Z,3.07
2017-09-08T10:27:01.832Z,2.67
2017-09-08T10:29:30.684Z,2.60
2017-09-08T10:31:59.496Z,2.90
2017-09-08T10:34:27.828Z,2.73
2017-09-08T10:36:57.303Z,2.70
2017-09-08T10:39:25.420Z,2.10
2017-09-08T10:41:54.526Z,2.30
2017-09-08T10:44:22.668Z,2.17
2017-09-08T10:46:50.795Z,1.97
2017-09-08T10:49:18.936Z,2.40
2017-09-08T10:51:48.164Z,2.70
2017-09-08T10:54:16.340Z,2.80
2017-09-08T10:56:45.489Z,4.63
2017-09-08T10:59:14.139Z,3.93
2017-09-08T11:01:57.758Z,4.70
2017-09-08T11:13:34.744Z,4.73
2017-09-08T11:16:07.873Z,4.83
2017-09-08T11:18:41.513Z,4.60
2017-09-08T11:24:13.200Z,4.90
2017-09-08T11:27:05.111Z,4.30
2017-09-08T11:29:47.036Z,4.70
2017-09-08T11:32:16.250Z,3.47
2017-09-08T11:38:13.075Z,3.80
2017-09-08T11:40:41.638Z,4.13
2017-09-08T11:43:10.348Z,3.97
2017-09-08T11:46:08.043Z,4.00
2017-09-08T11:48:59.934Z,3.30
2017-09-08T11:57:39.342Z,3.63
2017-09-08T12:00:13.210Z,4.30
2017-09-08T12:02:50.133Z,3.57
2017-09-08T12:05:20.878Z,3.90
2017-09-08T12:08:16.358Z,3.40
2017-09-08T12:14:01.934Z,2.90
2017-09-08T12:16:43.808Z,3.30
2017-09-08T12:19:17.802Z,3.17
2017-09-08T13:35:14.803Z,2.57
2017-09-08T13:48:26.812Z,3.00
2017-09-08T13:51:23.111Z,2.53
2017-09-08T13:53:51.436Z,2.63
2017-09-08T13:57:02.290Z,1.90
2017-09-08T13:59:32.041Z,2.40
2017-09-08T14:02:12.785Z,2.77
2017-09-08T14:18:48.541Z,4.03
2017-09-08T14:24:03.186Z,3.30
2017-09-08T14:26:32.286Z,4.00
2017-09-08T14:29:05.287Z,5.90
2017-09-08T14:31:48.960Z,2.80
2017-09-08T14:34:31.638Z,2.50
2017-09-08T14:37:08.460Z,3.00
2017-09-08T14:39:57.532Z,3.30
2017-09-08T14:49:55.753Z,2.93
2017-09-08T14:52:25.363Z,3.23
2017-09-08T14:55:05.983Z,3.90
2017-09-08T14:57:36.839Z,3.20
2017-09-08T15:00:07.174Z,3.30
2017-09-08T15:12:03.076Z,3.17
2017-09-08T15:39:09.516Z,1.80
2017-09-08T15:41:40.080Z,2.10
2017-09-08T15:44:09.403Z,2.30
2017-09-08T15:46:37.558Z,2.47
2017-09-08T15:49:08.889Z,2.20
2017-09-08T15:51:37.470Z,2.40
2017-09-08T15:54:06.732Z,2.63
2017-09-08T15:56:34.837Z,2.30
2017-09-08T15:59:03.952Z,2.40
2017-09-08T16:01:33.282Z,2.43
2017-09-08T16:04:01.737Z,1.83
2017-09-08T16:06:29.816Z,2.27
2017-09-08T16:08:57.917Z,2.10
2017-09-08T16:11:26.564Z,1.50
2017-09-08T16:13:55.904Z,2.23
2017-09-08T16:16:25.489Z,1.60
2017-09-08T16:19:01.359Z,1.73
2017-09-08T16:21:35.555Z,2.37
2017-09-08T16:24:10.068Z,2.13
2017-09-08T16:30:09.723Z,2.70
2017-09-08T16:32:39.690Z,3.37
2017-09-08T16:46:05.001Z,2.63
2017-09-08T16:48:34.014Z,2.50
2017-09-08T16:51:06.189Z,3.53
2017-09-08T16:56:20.650Z,2.90
2017-09-08T16:58:58.555Z,2.70
2017-09-08T17:01:33.334Z,2.57
2017-09-08T17:04:02.355Z,3.20
2017-09-08T17:06:33.018Z,2.40
2017-09-08T17:09:05.733Z,2.77
2017-09-08T17:11:42.698Z,3.80
2017-09-08T17:17:33.608Z,3.27
2017-09-08T17:20:14.553Z,3.43
2017-09-08T17:22:50.824Z,3.70
2017-09-08T17:31:15.421Z,3.90
2017-09-08T17:36:37.375Z,3.30
2017-09-08T17:39:06.060Z,2.77
2017-09-08T17:41:34.245Z,3.10
2017-09-08T17:44:03.260Z,2.97
2017-09-08T17:46:39.604Z,2.50
2017-09-08T17:49:07.889Z,2.23
2017-09-08T17:51:38.098Z,5.00
2017-09-08T17:54:09.334Z,3.20
2017-09-08T17:56:45.026Z,3.10
2017-09-08T17:59:14.770Z,2.43
2017-09-08T18:01:42.973Z,2.67
2017-09-08T18:04:11.153Z,2.57
2017-09-08T18:06:39.259Z,2.90
2017-09-08T18:09:08.270Z,3.10
2017-09-08T18:11:42.385Z,2.60
2017-09-08T18:14:10.580Z,2.87
2017-09-08T18:16:41.985Z,2.80
2017-09-08T18:19:12.050Z,2.80
2017-09-08T18:21:48.378Z,3.43
2017-09-08T18:24:22.707Z,3.70
2017-09-08T18:26:52.705Z,3.87
2017-09-08T18:29:22.146Z,3.50
2017-09-08T18:31:51.262Z,5.00
2017-09-08T18:34:22.157Z,4.60
2017-09-08T18:36:50.281Z,4.77
2017-09-08T18:39:25.502Z,5.67
2017-09-08T18:41:56.757Z,4.90
2017-09-08T18:44:25.887Z,4.40
2017-09-08T18:46:57.144Z,4.70
2017-09-08T18:49:25.737Z,4.60
2017-09-08T18:51:59.996Z,7.43
2017-09-08T18:54:29.049Z,4.90
2017-09-08T18:56:58.295Z,5.60
2017-09-08T18:59:27.903Z,6.67
2017-09-08T19:01:56.053Z,6.13
2017-09-08T19:04:24.211Z,6.20
2017-09-08T19:06:58.122Z,6.30
2017-09-08T19:09:27.970Z,5.20
2017-09-08T19:11:57.177Z,6.00
2017-09-08T19:14:25.365Z,5.43
2017-09-08T19:16:53.572Z,6.10
2017-09-08T19:19:25.449Z,5.40
2017-09-08T19:21:53.989Z,5.73
2017-09-08T19:24:25.413Z,5.47
2017-09-08T19:27:29.090Z,5.17
2017-09-08T19:30:07.350Z,5.97
2017-09-08T19:42:25.256Z,5.17
2017-09-08T19:44:54.169Z,5.27
2017-09-08T19:47:23.468Z,5.50
2017-09-08T19:49:52.843Z,5.53
2017-09-08T19:52:28.627Z,6.17
2017-09-08T19:55:04.474Z,6.10
2017-09-08T19:57:32.959Z,5.10
2017-09-08T20:00:01.214Z,5.23
2017-09-08T20:02:37.195Z,6.03
2017-09-08T20:08:05.377Z,6.47
2017-09-08T20:10:33.817Z,6.17
2017-09-08T20:13:02.825Z,5.20
2017-09-08T20:15:35.400Z,5.80
2017-09-08T20:18:03.807Z,5.60
2017-09-08T20:20:36.117Z,5.43
2017-09-08T20:23:06.685Z,5.90
2017-09-08T20:25:37.960Z,5.13
2017-09-08T20:28:13.510Z,4.73
2017-09-08T20:30:41.679Z,5.37
2017-09-08T20:33:13.583Z,4.70
2017-09-08T20:35:53.482Z,5.60
2017-09-08T20:38:38.009Z,6.10
2017-09-08T20:41:09.777Z,5.50
2017-09-08T20:52:57.437Z,4.47
2017-09-08T20:55:31.451Z,4.90
2017-09-08T20:58:03.618Z,5.53
2017-09-08T21:00:32.053Z,5.20
2017-09-08T21:03:00.329Z,5.57
2017-09-08T21:05:34.962Z,5.60
2017-09-08T21:08:03.545Z,7.07
2017-09-08T21:10:32.508Z,6.67
2017-09-08T21:13:01.222Z,5.90
2017-09-08T21:15:33.234Z,5.73
2017-09-08T21:18:06.012Z,6.30
2017-09-08T21:20:34.447Z,6.83
2017-09-08T21:23:04.626Z,6.37
2017-09-08T21:25:32.776Z,6.80
2017-09-08T21:31:32.006Z,8.33
2017-09-08T21:34:18.260Z,7.20
2017-09-08T21:44:36.926Z,8.33
2017-09-08T21:47:06.136Z,7.20
2017-09-08T21:49:35.274Z,7.83
2017-09-08T21:52:04.537Z,6.77
2017-09-08T21:54:32.812Z,8.70
2017-09-08T21:57:02.584Z,8.47
2017-09-08T21:59:34.547Z,7.80
2017-09-08T22:02:08.402Z,7.80
2017-09-08T22:04:40.246Z,8.63
2017-09-08T22:16:27.871Z,7.10
2017-09-08T22:18:58.689Z,5.93
2017-09-08T22:21:27.918Z,5.80
2017-09-08T22:23:56.710Z,6.07
2017-09-08T22:26:25.632Z,4.77
2017-09-08T22:29:14.956Z,5.60
2017-09-08T22:31:54.560Z,5.80
2017-09-08T22:43:56.734Z,5.50
2017-09-08T22:46:28.493Z,5.70
2017-09-08T22:52:23.556Z,4.90
2017-09-08T22:54:55.383Z,5.43
2017-09-08T23:03:39.870Z,6.57
2017-09-08T23:09:08.267Z,5.43
2017-09-08T23:11:37.687Z,6.00
2017-09-08T23:24:13.504Z,6.20
2017-09-08T23:27:04.150Z,6.50
2017-09-08T23:29:38.320Z,6.53
2017-09-08T23:32:20.693Z,6.87
2017-09-08T23:37:59.275Z,7.00
